Terminal Aerodrome Forecast
Issued by NWS

Home | Current Version | Previous Version | Text Only | Print | Product List | Glossary On
Versions: 1 2 3 4 5 6 7 8 9 10 11 12 13
000
FTUS46 KPDT 252300
TAFDLS
TAF
KDLS 252320Z 2600/2624 30010KT P6SM FEW060 SCT200
     FM260300 30005KT P6SM SCT200
     FM261400 VRB03KT 5SM BR SCT008 OVC015
     FM261900 VRB03KT P6SM SCT200=

USA.gov is the U.S. government's official web portal to all federal, state and local government web resources and services.